sensor_id;sensor_type;location;lat;lon;timestamp;P1;durP1;ratioP1;P2;durP2;ratioP2
66089;SDS011;53113;45.602;11.904;2022-10-19T00:01:51;38.00;;;25.40;;
66089;SDS011;53113;45.602;11.904;2022-10-19T00:04:17;35.40;;;24.90;;
66089;SDS011;53113;45.602;11.904;2022-10-19T00:06:43;33.40;;;22.90;;
66089;SDS011;53113;45.602;11.904;2022-10-19T00:09:12;33.70;;;24.40;;
66089;SDS011;53113;45.602;11.904;2022-10-19T00:11:41;33.70;;;22.50;;
66089;SDS011;53113;45.602;11.904;2022-10-19T00:14:10;35.20;;;22.80;;
66089;SDS011;53113;45.602;11.904;2022-10-19T00:16:39;35.90;;;24.30;;
66089;SDS011;53113;45.602;11.904;2022-10-19T00:19:08;34.50;;;24.40;;
66089;SDS011;53113;45.602;11.904;2022-10-19T00:21:37;33.10;;;23.00;;
66089;SDS011;53113;45.602;11.904;2022-10-19T00:24:04;31.10;;;22.60;;
66089;SDS011;53113;45.602;11.904;2022-10-19T00:26:31;32.40;;;21.30;;
66089;SDS011;53113;45.602;11.904;2022-10-19T00:28:56;35.00;;;23.10;;
66089;SDS011;53113;45.602;11.904;2022-10-19T00:31:22;32.30;;;22.60;;
66089;SDS011;53113;45.602;11.904;2022-10-19T00:33:49;31.50;;;21.60;;
66089;SDS011;53113;45.602;11.904;2022-10-19T00:36:21;32.70;;;22.70;;
66089;SDS011;53113;45.602;11.904;2022-10-19T00:38:53;33.60;;;21.70;;
66089;SDS011;53113;45.602;11.904;2022-10-19T00:41:21;29.70;;;20.30;;
66089;SDS011;53113;45.602;11.904;2022-10-19T00:46:44;32.00;;;22.60;;
66089;SDS011;53113;45.602;11.904;2022-10-19T00:51:47;33.20;;;22.60;;
66089;SDS011;53113;45.602;11.904;2022-10-19T00:54:17;30.70;;;21.60;;
66089;SDS011;53113;45.602;11.904;2022-10-19T00:56:44;29.30;;;21.00;;
66089;SDS011;53113;45.602;11.904;2022-10-19T00:59:12;34.30;;;22.80;;
66089;SDS011;53113;45.602;11.904;2022-10-19T01:01:42;28.80;;;20.40;;
66089;SDS011;53113;45.602;11.904;2022-10-19T01:04:09;30.10;;;20.70;;
66089;SDS011;53113;45.602;11.904;2022-10-19T01:06:36;31.90;;;21.40;;
66089;SDS011;53113;45.602;11.904;2022-10-19T01:09:04;33.40;;;21.50;;
66089;SDS011;53113;45.602;11.904;2022-10-19T01:17:31;29.80;;;21.20;;
66089;SDS011;53113;45.602;11.904;2022-10-19T01:23:03;30.30;;;20.90;;
66089;SDS011;53113;45.602;11.904;2022-10-19T01:34:12;33.70;;;22.20;;
66089;SDS011;53113;45.602;11.904;2022-10-19T01:36:41;30.30;;;21.10;;
66089;SDS011;53113;45.602;11.904;2022-10-19T01:42:10;33.50;;;21.90;;
66089;SDS011;53113;45.602;11.904;2022-10-19T01:47:25;30.20;;;21.10;;
66089;SDS011;53113;45.602;11.904;2022-10-19T01:52:28;31.60;;;20.90;;
66089;SDS011;53113;45.602;11.904;2022-10-19T01:54:57;29.20;;;21.50;;
66089;SDS011;53113;45.602;11.904;2022-10-19T01:57:31;30.30;;;20.50;;
66089;SDS011;53113;45.602;11.904;2022-10-19T02:00:02;31.40;;;21.10;;
66089;SDS011;53113;45.602;11.904;2022-10-19T02:02:32;19.50;;;13.70;;
66089;SDS011;53113;45.602;11.904;2022-10-19T02:05:01;30.70;;;20.60;;
66089;SDS011;53113;45.602;11.904;2022-10-19T02:07:29;32.30;;;21.90;;
66089;SDS011;53113;45.602;11.904;2022-10-19T02:09:57;29.40;;;20.10;;
66089;SDS011;53113;45.602;11.904;2022-10-19T02:12:23;30.70;;;21.10;;
66089;SDS011;53113;45.602;11.904;2022-10-19T02:14:52;32.00;;;20.90;;
66089;SDS011;53113;45.602;11.904;2022-10-19T02:17:26;33.40;;;23.90;;
66089;SDS011;53113;45.602;11.904;2022-10-19T02:19:57;30.80;;;21.30;;
66089;SDS011;53113;45.602;11.904;2022-10-19T02:22:24;29.80;;;20.90;;
66089;SDS011;53113;45.602;11.904;2022-10-19T02:24:50;35.50;;;24.10;;
66089;SDS011;53113;45.602;11.904;2022-10-19T02:27:16;34.60;;;22.20;;
66089;SDS011;53113;45.602;11.904;2022-10-19T02:29:43;29.50;;;19.70;;
66089;SDS011;53113;45.602;11.904;2022-10-19T02:32:10;30.70;;;20.40;;
66089;SDS011;53113;45.602;11.904;2022-10-19T02:37:58;29.10;;;19.30;;
66089;SDS011;53113;45.602;11.904;2022-10-19T02:40:27;29.40;;;20.20;;
66089;SDS011;53113;45.602;11.904;2022-10-19T02:42:59;29.10;;;19.40;;
66089;SDS011;53113;45.602;11.904;2022-10-19T02:45:30;31.10;;;20.80;;
66089;SDS011;53113;45.602;11.904;2022-10-19T02:48:04;32.00;;;21.10;;
66089;SDS011;53113;45.602;11.904;2022-10-19T02:50:35;32.20;;;21.80;;
66089;SDS011;53113;45.602;11.904;2022-10-19T02:53:02;31.00;;;20.30;;
66089;SDS011;53113;45.602;11.904;2022-10-19T02:55:28;34.00;;;22.70;;
66089;SDS011;53113;45.602;11.904;2022-10-19T02:57:55;32.80;;;20.80;;
66089;SDS011;53113;45.602;11.904;2022-10-19T03:00:21;31.60;;;21.40;;
66089;SDS011;53113;45.602;11.904;2022-10-19T03:02:47;28.90;;;20.00;;
66089;SDS011;53113;45.602;11.904;2022-10-19T03:05:13;30.30;;;18.90;;
66089;SDS011;53113;45.602;11.904;2022-10-19T03:07:39;29.30;;;19.80;;
66089;SDS011;53113;45.602;11.904;2022-10-19T03:10:05;27.80;;;19.10;;
66089;SDS011;53113;45.602;11.904;2022-10-19T03:12:32;28.20;;;19.60;;
66089;SDS011;53113;45.602;11.904;2022-10-19T03:14:57;27.10;;;19.20;;
66089;SDS011;53113;45.602;11.904;2022-10-19T03:17:23;25.80;;;17.80;;
66089;SDS011;53113;45.602;11.904;2022-10-19T03:19:49;25.20;;;17.90;;
66089;SDS011;53113;45.602;11.904;2022-10-19T03:22:14;24.30;;;17.50;;
66089;SDS011;53113;45.602;11.904;2022-10-19T03:24:40;29.80;;;20.20;;
66089;SDS011;53113;45.602;11.904;2022-10-19T03:27:06;27.70;;;19.00;;
66089;SDS011;53113;45.602;11.904;2022-10-19T03:29:31;28.80;;;20.00;;
66089;SDS011;53113;45.602;11.904;2022-10-19T03:31:57;26.90;;;18.80;;
66089;SDS011;53113;45.602;11.904;2022-10-19T03:34:22;29.10;;;19.30;;
66089;SDS011;53113;45.602;11.904;2022-10-19T03:36:48;28.70;;;19.30;;
66089;SDS011;53113;45.602;11.904;2022-10-19T03:39:14;31.90;;;18.80;;
66089;SDS011;53113;45.602;11.904;2022-10-19T03:41:41;28.20;;;18.70;;
66089;SDS011;53113;45.602;11.904;2022-10-19T03:44:08;28.60;;;19.10;;
66089;SDS011;53113;45.602;11.904;2022-10-19T03:46:35;28.20;;;19.60;;
66089;SDS011;53113;45.602;11.904;2022-10-19T03:49:03;29.90;;;18.70;;
66089;SDS011;53113;45.602;11.904;2022-10-19T03:51:29;32.40;;;20.80;;
66089;SDS011;53113;45.602;11.904;2022-10-19T03:53:58;31.60;;;20.90;;
66089;SDS011;53113;45.602;11.904;2022-10-19T03:56:26;27.70;;;19.40;;
66089;SDS011;53113;45.602;11.904;2022-10-19T03:58:54;25.70;;;17.90;;
66089;SDS011;53113;45.602;11.904;2022-10-19T04:01:29;27.70;;;18.40;;
66089;SDS011;53113;45.602;11.904;2022-10-19T04:04:01;25.60;;;18.50;;
66089;SDS011;53113;45.602;11.904;2022-10-19T04:06:29;23.90;;;17.20;;
66089;SDS011;53113;45.602;11.904;2022-10-19T04:08:58;23.70;;;16.70;;
66089;SDS011;53113;45.602;11.904;2022-10-19T04:11:25;27.00;;;18.40;;
66089;SDS011;53113;45.602;11.904;2022-10-19T04:13:54;27.10;;;17.60;;
66089;SDS011;53113;45.602;11.904;2022-10-19T04:16:21;22.40;;;16.30;;
66089;SDS011;53113;45.602;11.904;2022-10-19T04:18:48;21.10;;;15.10;;
66089;SDS011;53113;45.602;11.904;2022-10-19T04:21:20;21.80;;;15.30;;
66089;SDS011;53113;45.602;11.904;2022-10-19T04:23:58;20.90;;;14.60;;
66089;SDS011;53113;45.602;11.904;2022-10-19T04:26:26;20.70;;;14.30;;
66089;SDS011;53113;45.602;11.904;2022-10-19T04:28:51;20.40;;;14.40;;
66089;SDS011;53113;45.602;11.904;2022-10-19T04:31:17;24.80;;;15.20;;
66089;SDS011;53113;45.602;11.904;2022-10-19T04:33:42;22.00;;;15.10;;
66089;SDS011;53113;45.602;11.904;2022-10-19T04:36:09;26.80;;;17.40;;
66089;SDS011;53113;45.602;11.904;2022-10-19T04:38:36;25.00;;;16.60;;
66089;SDS011;53113;45.602;11.904;2022-10-19T04:41:10;23.60;;;16.50;;
66089;SDS011;53113;45.602;11.904;2022-10-19T04:43:37;21.00;;;15.10;;
66089;SDS011;53113;45.602;11.904;2022-10-19T04:46:08;23.40;;;16.70;;
66089;SDS011;53113;45.602;11.904;2022-10-19T04:48:36;22.60;;;15.70;;
66089;SDS011;53113;45.602;11.904;2022-10-19T04:51:03;21.90;;;15.70;;
66089;SDS011;53113;45.602;11.904;2022-10-19T04:53:30;29.90;;;17.00;;
66089;SDS011;53113;45.602;11.904;2022-10-19T04:55:56;24.20;;;17.40;;
66089;SDS011;53113;45.602;11.904;2022-10-19T04:58:22;29.00;;;17.30;;
66089;SDS011;53113;45.602;11.904;2022-10-19T05:00:49;23.70;;;15.90;;
66089;SDS011;53113;45.602;11.904;2022-10-19T05:03:14;25.30;;;17.60;;
66089;SDS011;53113;45.602;11.904;2022-10-19T05:05:41;25.20;;;17.50;;
66089;SDS011;53113;45.602;11.904;2022-10-19T05:08:07;24.50;;;17.50;;
66089;SDS011;53113;45.602;11.904;2022-10-19T05:10:34;24.80;;;18.00;;
66089;SDS011;53113;45.602;11.904;2022-10-19T05:13:01;26.40;;;17.10;;
66089;SDS011;53113;45.602;11.904;2022-10-19T05:15:27;26.80;;;17.80;;
66089;SDS011;53113;45.602;11.904;2022-10-19T05:17:54;25.90;;;17.40;;
66089;SDS011;53113;45.602;11.904;2022-10-19T05:20:20;25.60;;;17.30;;
66089;SDS011;53113;45.602;11.904;2022-10-19T05:22:47;25.70;;;17.40;;
66089;SDS011;53113;45.602;11.904;2022-10-19T05:25:13;27.50;;;17.50;;
66089;SDS011;53113;45.602;11.904;2022-10-19T05:27:38;25.20;;;17.20;;
66089;SDS011;53113;45.602;11.904;2022-10-19T05:30:04;26.90;;;17.80;;
66089;SDS011;53113;45.602;11.904;2022-10-19T05:32:33;15.90;;;11.10;;
66089;SDS011;53113;45.602;11.904;2022-10-19T05:34:59;25.20;;;17.20;;
66089;SDS011;53113;45.602;11.904;2022-10-19T05:37:25;24.00;;;16.20;;
66089;SDS011;53113;45.602;11.904;2022-10-19T05:39:51;28.10;;;18.90;;
66089;SDS011;53113;45.602;11.904;2022-10-19T05:42:18;26.30;;;17.70;;
66089;SDS011;53113;45.602;11.904;2022-10-19T05:44:44;25.20;;;16.30;;
66089;SDS011;53113;45.602;11.904;2022-10-19T05:47:09;27.00;;;17.60;;
66089;SDS011;53113;45.602;11.904;2022-10-19T05:49:35;25.60;;;18.20;;
66089;SDS011;53113;45.602;11.904;2022-10-19T05:52:00;28.40;;;17.20;;
66089;SDS011;53113;45.602;11.904;2022-10-19T05:54:26;29.00;;;17.20;;
66089;SDS011;53113;45.602;11.904;2022-10-19T05:56:52;28.60;;;18.00;;
66089;SDS011;53113;45.602;11.904;2022-10-19T05:59:18;26.60;;;18.80;;
66089;SDS011;53113;45.602;11.904;2022-10-19T06:01:45;24.60;;;16.90;;
66089;SDS011;53113;45.602;11.904;2022-10-19T06:04:12;26.60;;;18.20;;
66089;SDS011;53113;45.602;11.904;2022-10-19T06:09:44;31.10;;;20.90;;
66089;SDS011;53113;45.602;11.904;2022-10-19T06:12:19;29.60;;;18.20;;
66089;SDS011;53113;45.602;11.904;2022-10-19T06:14:51;27.20;;;17.60;;
66089;SDS011;53113;45.602;11.904;2022-10-19T06:17:21;28.30;;;18.30;;
66089;SDS011;53113;45.602;11.904;2022-10-19T06:19:47;25.80;;;18.20;;
66089;SDS011;53113;45.602;11.904;2022-10-19T06:22:18;27.30;;;19.10;;
66089;SDS011;53113;45.602;11.904;2022-10-19T06:24:51;32.70;;;21.20;;
66089;SDS011;53113;45.602;11.904;2022-10-19T06:27:25;36.10;;;24.70;;
66089;SDS011;53113;45.602;11.904;2022-10-19T06:30:02;33.80;;;20.70;;
66089;SDS011;53113;45.602;11.904;2022-10-19T06:32:35;35.70;;;21.00;;
66089;SDS011;53113;45.602;11.904;2022-10-19T06:35:10;32.90;;;20.20;;
66089;SDS011;53113;45.602;11.904;2022-10-19T06:37:45;37.00;;;21.20;;
66089;SDS011;53113;45.602;11.904;2022-10-19T06:43:39;34.20;;;22.00;;
66089;SDS011;53113;45.602;11.904;2022-10-19T06:46:10;36.20;;;22.80;;
66089;SDS011;53113;45.602;11.904;2022-10-19T07:05:07;40.20;;;25.00;;
66089;SDS011;53113;45.602;11.904;2022-10-19T07:07:38;37.90;;;24.40;;
66089;SDS011;53113;45.602;11.904;2022-10-19T07:13:35;38.20;;;25.40;;
66089;SDS011;53113;45.602;11.904;2022-10-19T07:16:13;38.70;;;24.50;;
66089;SDS011;53113;45.602;11.904;2022-10-19T07:22:03;41.70;;;26.80;;
66089;SDS011;53113;45.602;11.904;2022-10-19T07:27:51;48.90;;;29.30;;
66089;SDS011;53113;45.602;11.904;2022-10-19T07:30:20;53.20;;;31.40;;
66089;SDS011;53113;45.602;11.904;2022-10-19T07:42:53;40.10;;;26.30;;
66089;SDS011;53113;45.602;11.904;2022-10-19T07:48:42;38.10;;;25.00;;
66089;SDS011;53113;45.602;11.904;2022-10-19T07:51:09;37.70;;;24.30;;
66089;SDS011;53113;45.602;11.904;2022-10-19T07:53:37;39.80;;;25.20;;
66089;SDS011;53113;45.602;11.904;2022-10-19T08:02:48;39.40;;;25.40;;
66089;SDS011;53113;45.602;11.904;2022-10-19T08:05:14;38.10;;;25.50;;
66089;SDS011;53113;45.602;11.904;2022-10-19T09:07:29;37.00;;;28.00;;
66089;SDS011;53113;45.602;11.904;2022-10-19T09:10:03;39.40;;;27.60;;
66089;SDS011;53113;45.602;11.904;2022-10-19T09:18:13;38.10;;;27.30;;
66089;SDS011;53113;45.602;11.904;2022-10-19T09:20:47;36.50;;;28.00;;
66089;SDS011;53113;45.602;11.904;2022-10-19T09:26:16;35.30;;;26.30;;
66089;SDS011;53113;45.602;11.904;2022-10-19T09:31:29;36.10;;;27.20;;
66089;SDS011;53113;45.602;11.904;2022-10-19T09:34:02;37.90;;;29.00;;
66089;SDS011;53113;45.602;11.904;2022-10-19T09:36:42;38.20;;;28.30;;
66089;SDS011;53113;45.602;11.904;2022-10-19T09:39:15;34.90;;;27.40;;
66089;SDS011;53113;45.602;11.904;2022-10-19T09:41:44;33.90;;;28.10;;
66089;SDS011;53113;45.602;11.904;2022-10-19T09:44:14;32.30;;;25.20;;
66089;SDS011;53113;45.602;11.904;2022-10-19T09:50:04;32.90;;;25.50;;
66089;SDS011;53113;45.602;11.904;2022-10-19T09:58:19;30.80;;;25.60;;
66089;SDS011;53113;45.602;11.904;2022-10-19T10:00:49;28.50;;;23.20;;
66089;SDS011;53113;45.602;11.904;2022-10-19T10:03:23;31.40;;;25.30;;
66089;SDS011;53113;45.602;11.904;2022-10-19T10:05:56;30.70;;;23.50;;
66089;SDS011;53113;45.602;11.904;2022-10-19T10:08:29;30.30;;;23.40;;
66089;SDS011;53113;45.602;11.904;2022-10-19T10:13:51;28.50;;;22.50;;
66089;SDS011;53113;45.602;11.904;2022-10-19T10:16:22;22.90;;;17.70;;
66089;SDS011;53113;45.602;11.904;2022-10-19T10:18:50;19.50;;;16.10;;
66089;SDS011;53113;45.602;11.904;2022-10-19T10:26:39;21.30;;;17.70;;
66089;SDS011;53113;45.602;11.904;2022-10-19T10:29:18;22.00;;;17.60;;
66089;SDS011;53113;45.602;11.904;2022-10-19T10:32:11;24.30;;;17.00;;
66089;SDS011;53113;45.602;11.904;2022-10-19T10:34:43;21.60;;;15.50;;
66089;SDS011;53113;45.602;11.904;2022-10-19T10:39:49;20.10;;;15.90;;
66089;SDS011;53113;45.602;11.904;2022-10-19T10:42:26;19.90;;;15.60;;
66089;SDS011;53113;45.602;11.904;2022-10-19T10:44:55;20.60;;;16.70;;
66089;SDS011;53113;45.602;11.904;2022-10-19T10:47:21;22.00;;;16.40;;
66089;SDS011;53113;45.602;11.904;2022-10-19T10:49:57;19.10;;;16.30;;
66089;SDS011;53113;45.602;11.904;2022-10-19T10:52:28;20.90;;;15.70;;
66089;SDS011;53113;45.602;11.904;2022-10-19T10:55:16;21.30;;;15.90;;
66089;SDS011;53113;45.602;11.904;2022-10-19T10:57:44;18.60;;;14.40;;
66089;SDS011;53113;45.602;11.904;2022-10-19T11:00:19;17.80;;;14.40;;
66089;SDS011;53113;45.602;11.904;2022-10-19T11:05:25;20.50;;;14.80;;
66089;SDS011;53113;45.602;11.904;2022-10-19T11:13:40;18.10;;;14.70;;
66089;SDS011;53113;45.602;11.904;2022-10-19T11:16:11;16.50;;;14.10;;
66089;SDS011;53113;45.602;11.904;2022-10-19T11:18:40;19.40;;;15.10;;
66089;SDS011;53113;45.602;11.904;2022-10-19T11:21:19;22.30;;;14.60;;
66089;SDS011;53113;45.602;11.904;2022-10-19T11:24:04;17.50;;;13.30;;
66089;SDS011;53113;45.602;11.904;2022-10-19T11:32:00;18.60;;;14.50;;
66089;SDS011;53113;45.602;11.904;2022-10-19T11:39:28;17.30;;;13.50;;
66089;SDS011;53113;45.602;11.904;2022-10-19T11:45:01;20.10;;;14.30;;
66089;SDS011;53113;45.602;11.904;2022-10-19T11:55:55;15.90;;;13.20;;
66089;SDS011;53113;45.602;11.904;2022-10-19T11:58:46;16.20;;;13.70;;
66089;SDS011;53113;45.602;11.904;2022-10-19T12:03:56;16.10;;;13.20;;
66089;SDS011;53113;45.602;11.904;2022-10-19T12:10:00;17.90;;;13.30;;
66089;SDS011;53113;45.602;11.904;2022-10-19T12:12:50;18.80;;;13.10;;
66089;SDS011;53113;45.602;11.904;2022-10-19T12:17:57;14.90;;;11.70;;
66089;SDS011;53113;45.602;11.904;2022-10-19T12:20:33;16.70;;;12.40;;
66089;SDS011;53113;45.602;11.904;2022-10-19T12:23:24;15.60;;;12.20;;
66089;SDS011;53113;45.602;11.904;2022-10-19T12:25:59;16.40;;;11.10;;
66089;SDS011;53113;45.602;11.904;2022-10-19T12:28:31;14.80;;;11.00;;
66089;SDS011;53113;45.602;11.904;2022-10-19T12:31:02;13.50;;;11.50;;
66089;SDS011;53113;45.602;11.904;2022-10-19T12:33:35;16.00;;;12.00;;
66089;SDS011;53113;45.602;11.904;2022-10-19T12:42:21;16.00;;;12.90;;
66089;SDS011;53113;45.602;11.904;2022-10-19T12:47:38;15.60;;;12.80;;
66089;SDS011;53113;45.602;11.904;2022-10-19T12:50:05;17.00;;;13.10;;
66089;SDS011;53113;45.602;11.904;2022-10-19T12:52:49;16.60;;;13.10;;
66089;SDS011;53113;45.602;11.904;2022-10-19T12:55:27;19.20;;;14.30;;
66089;SDS011;53113;45.602;11.904;2022-10-19T13:00:28;21.70;;;13.30;;
66089;SDS011;53113;45.602;11.904;2022-10-19T13:03:43;16.30;;;12.20;;
66089;SDS011;53113;45.602;11.904;2022-10-19T13:06:00;15.60;;;11.70;;
66089;SDS011;53113;45.602;11.904;2022-10-19T13:08:29;16.10;;;11.80;;
66089;SDS011;53113;45.602;11.904;2022-10-19T13:11:26;17.20;;;12.00;;
66089;SDS011;53113;45.602;11.904;2022-10-19T13:21:46;15.10;;;11.00;;
66089;SDS011;53113;45.602;11.904;2022-10-19T13:40:40;21.10;;;11.10;;
66089;SDS011;53113;45.602;11.904;2022-10-19T13:43:21;17.30;;;11.90;;
66089;SDS011;53113;45.602;11.904;2022-10-19T13:45:59;23.10;;;10.40;;
66089;SDS011;53113;45.602;11.904;2022-10-19T13:51:30;11.50;;;8.40;;
66089;SDS011;53113;45.602;11.904;2022-10-19T13:54:16;9.00;;;13.00;;
66089;SDS011;53113;45.602;11.904;2022-10-19T14:05:20;13.60;;;9.90;;
66089;SDS011;53113;45.602;11.904;2022-10-19T14:10:45;12.10;;;8.70;;
66089;SDS011;53113;45.602;11.904;2022-10-19T14:13:22;27.00;;;10.70;;
66089;SDS011;53113;45.602;11.904;2022-10-19T14:15:49;14.60;;;8.30;;
66089;SDS011;53113;45.602;11.904;2022-10-19T14:18:20;14.40;;;8.30;;
66089;SDS011;53113;45.602;11.904;2022-10-19T14:21:01;23.20;;;8.40;;
66089;SDS011;53113;45.602;11.904;2022-10-19T14:26:02;30.70;;;9.00;;
66089;SDS011;53113;45.602;11.904;2022-10-19T14:28:31;22.60;;;8.70;;
66089;SDS011;53113;45.602;11.904;2022-10-19T14:31:02;33.90;;;10.00;;
66089;SDS011;53113;45.602;11.904;2022-10-19T14:33:32;24.10;;;9.50;;
66089;SDS011;53113;45.602;11.904;2022-10-19T14:36:00;23.70;;;10.00;;
66089;SDS011;53113;45.602;11.904;2022-10-19T14:40:53;16.20;;;9.50;;
66089;SDS011;53113;45.602;11.904;2022-10-19T14:43:22;24.80;;;10.20;;
66089;SDS011;53113;45.602;11.904;2022-10-19T14:46:07;25.10;;;10.40;;
66089;SDS011;53113;45.602;11.904;2022-10-19T14:48:39;26.40;;;10.80;;
66089;SDS011;53113;45.602;11.904;2022-10-19T14:51:25;19.40;;;11.30;;
66089;SDS011;53113;45.602;11.904;2022-10-19T14:59:46;27.50;;;12.20;;
66089;SDS011;53113;45.602;11.904;2022-10-19T15:02:25;20.90;;;12.50;;
66089;SDS011;53113;45.602;11.904;2022-10-19T15:05:03;24.20;;;12.60;;
66089;SDS011;53113;45.602;11.904;2022-10-19T15:07:42;23.30;;;11.70;;
66089;SDS011;53113;45.602;11.904;2022-10-19T15:10:34;22.40;;;12.50;;
66089;SDS011;53113;45.602;11.904;2022-10-19T15:13:04;17.50;;;11.20;;
66089;SDS011;53113;45.602;11.904;2022-10-19T15:15:33;18.00;;;11.20;;
66089;SDS011;53113;45.602;11.904;2022-10-19T15:20:35;25.70;;;12.30;;
66089;SDS011;53113;45.602;11.904;2022-10-19T15:26:02;20.20;;;10.50;;
66089;SDS011;53113;45.602;11.904;2022-10-19T15:31:05;17.10;;;10.70;;
66089;SDS011;53113;45.602;11.904;2022-10-19T15:33:38;19.10;;;10.10;;
66089;SDS011;53113;45.602;11.904;2022-10-19T15:36:07;21.20;;;9.70;;
66089;SDS011;53113;45.602;11.904;2022-10-19T15:38:42;15.50;;;9.00;;
66089;SDS011;53113;45.602;11.904;2022-10-19T15:41:20;14.40;;;8.80;;
66089;SDS011;53113;45.602;11.904;2022-10-19T15:43:53;16.30;;;8.90;;
66089;SDS011;53113;45.602;11.904;2022-10-19T15:46:24;17.50;;;9.60;;
66089;SDS011;53113;45.602;11.904;2022-10-19T15:48:57;19.30;;;10.20;;
66089;SDS011;53113;45.602;11.904;2022-10-19T15:53:50;20.70;;;9.30;;
66089;SDS011;53113;45.602;11.904;2022-10-19T15:56:18;37.50;;;11.50;;
66089;SDS011;53113;45.602;11.904;2022-10-19T15:58:48;26.30;;;11.80;;
66089;SDS011;53113;45.602;11.904;2022-10-19T16:01:15;22.70;;;10.70;;
66089;SDS011;53113;45.602;11.904;2022-10-19T16:03:44;34.70;;;12.50;;
66089;SDS011;53113;45.602;11.904;2022-10-19T16:06:10;30.30;;;11.80;;
66089;SDS011;53113;45.602;11.904;2022-10-19T16:08:37;29.50;;;11.50;;
66089;SDS011;53113;45.602;11.904;2022-10-19T16:11:03;31.00;;;12.00;;
66089;SDS011;53113;45.602;11.904;2022-10-19T16:13:33;28.10;;;11.80;;
66089;SDS011;53113;45.602;11.904;2022-10-19T16:16:08;27.90;;;11.40;;
66089;SDS011;53113;45.602;11.904;2022-10-19T16:21:02;26.70;;;13.20;;
66089;SDS011;53113;45.602;11.904;2022-10-19T16:23:29;26.70;;;13.00;;
66089;SDS011;53113;45.602;11.904;2022-10-19T16:25:58;29.20;;;12.30;;
66089;SDS011;53113;45.602;11.904;2022-10-19T16:28:25;41.00;;;14.00;;
66089;SDS011;53113;45.602;11.904;2022-10-19T16:30:51;61.70;;;14.60;;
66089;SDS011;53113;45.602;11.904;2022-10-19T16:33:21;100.80;;;16.30;;
66089;SDS011;53113;45.602;11.904;2022-10-19T16:35:47;39.00;;;12.40;;
66089;SDS011;53113;45.602;11.904;2022-10-19T16:38:12;40.60;;;12.20;;
66089;SDS011;53113;45.602;11.904;2022-10-19T16:40:38;23.60;;;10.80;;
66089;SDS011;53113;45.602;11.904;2022-10-19T16:43:04;20.10;;;10.30;;
66089;SDS011;53113;45.602;11.904;2022-10-19T16:45:29;18.80;;;11.00;;
66089;SDS011;53113;45.602;11.904;2022-10-19T16:47:55;20.50;;;11.90;;
66089;SDS011;53113;45.602;11.904;2022-10-19T16:50:21;19.50;;;12.50;;
66089;SDS011;53113;45.602;11.904;2022-10-19T16:52:49;20.30;;;13.60;;
66089;SDS011;53113;45.602;11.904;2022-10-19T16:55:29;23.20;;;12.40;;
66089;SDS011;53113;45.602;11.904;2022-10-19T16:57:55;22.30;;;13.10;;
66089;SDS011;53113;45.602;11.904;2022-10-19T17:00:21;21.80;;;13.30;;
66089;SDS011;53113;45.602;11.904;2022-10-19T17:02:47;20.30;;;12.60;;
66089;SDS011;53113;45.602;11.904;2022-10-19T17:05:12;21.10;;;12.50;;
66089;SDS011;53113;45.602;11.904;2022-10-19T17:07:38;24.00;;;13.60;;
66089;SDS011;53113;45.602;11.904;2022-10-19T17:10:04;23.00;;;13.40;;
66089;SDS011;53113;45.602;11.904;2022-10-19T17:12:30;21.60;;;12.90;;
66089;SDS011;53113;45.602;11.904;2022-10-19T17:14:56;20.90;;;13.30;;
66089;SDS011;53113;45.602;11.904;2022-10-19T17:17:22;19.70;;;14.10;;
66089;SDS011;53113;45.602;11.904;2022-10-19T17:19:47;24.60;;;14.40;;
66089;SDS011;53113;45.602;11.904;2022-10-19T17:22:13;20.00;;;13.80;;
66089;SDS011;53113;45.602;11.904;2022-10-19T17:24:40;20.00;;;14.30;;
66089;SDS011;53113;45.602;11.904;2022-10-19T17:27:06;20.90;;;13.80;;
66089;SDS011;53113;45.602;11.904;2022-10-19T17:29:32;23.50;;;13.00;;
66089;SDS011;53113;45.602;11.904;2022-10-19T17:31:58;20.30;;;13.40;;
66089;SDS011;53113;45.602;11.904;2022-10-19T17:34:24;20.90;;;13.60;;
66089;SDS011;53113;45.602;11.904;2022-10-19T17:36:50;20.60;;;13.30;;
66089;SDS011;53113;45.602;11.904;2022-10-19T17:39:16;19.40;;;13.00;;
66089;SDS011;53113;45.602;11.904;2022-10-19T17:41:45;21.80;;;13.20;;
66089;SDS011;53113;45.602;11.904;2022-10-19T17:44:12;21.30;;;13.60;;
66089;SDS011;53113;45.602;11.904;2022-10-19T17:46:39;23.90;;;13.80;;
66089;SDS011;53113;45.602;11.904;2022-10-19T17:49:05;21.60;;;13.00;;
66089;SDS011;53113;45.602;11.904;2022-10-19T17:51:32;26.30;;;15.10;;
66089;SDS011;53113;45.602;11.904;2022-10-19T17:54:04;22.90;;;14.40;;
66089;SDS011;53113;45.602;11.904;2022-10-19T17:56:32;23.40;;;14.10;;
66089;SDS011;53113;45.602;11.904;2022-10-19T17:58:58;21.60;;;13.50;;
66089;SDS011;53113;45.602;11.904;2022-10-19T18:01:25;18.90;;;13.30;;
66089;SDS011;53113;45.602;11.904;2022-10-19T18:03:51;18.30;;;13.30;;
66089;SDS011;53113;45.602;11.904;2022-10-19T18:06:21;20.60;;;13.70;;
66089;SDS011;53113;45.602;11.904;2022-10-19T18:08:53;35.60;;;14.90;;
66089;SDS011;53113;45.602;11.904;2022-10-19T18:13:55;23.90;;;13.70;;
66089;SDS011;53113;45.602;11.904;2022-10-19T18:16:24;20.40;;;13.00;;
66089;SDS011;53113;45.602;11.904;2022-10-19T18:18:56;24.60;;;16.20;;
66089;SDS011;53113;45.602;11.904;2022-10-19T18:21:24;22.90;;;14.50;;
66089;SDS011;53113;45.602;11.904;2022-10-19T18:23:51;20.50;;;14.50;;
66089;SDS011;53113;45.602;11.904;2022-10-19T18:26:21;26.30;;;17.20;;
66089;SDS011;53113;45.602;11.904;2022-10-19T18:28:49;21.20;;;13.80;;
66089;SDS011;53113;45.602;11.904;2022-10-19T18:31:17;23.00;;;16.30;;
66089;SDS011;53113;45.602;11.904;2022-10-19T18:33:46;22.10;;;16.00;;
66089;SDS011;53113;45.602;11.904;2022-10-19T18:36:13;23.00;;;14.70;;
66089;SDS011;53113;45.602;11.904;2022-10-19T18:38:40;22.20;;;14.90;;
66089;SDS011;53113;45.602;11.904;2022-10-19T18:41:07;21.20;;;14.90;;
66089;SDS011;53113;45.602;11.904;2022-10-19T18:43:36;25.30;;;15.70;;
66089;SDS011;53113;45.602;11.904;2022-10-19T18:46:03;22.60;;;15.20;;
66089;SDS011;53113;45.602;11.904;2022-10-19T18:48:30;24.80;;;15.60;;
66089;SDS011;53113;45.602;11.904;2022-10-19T18:50:57;21.80;;;15.30;;
66089;SDS011;53113;45.602;11.904;2022-10-19T18:53:27;22.50;;;15.80;;
66089;SDS011;53113;45.602;11.904;2022-10-19T18:55:55;25.90;;;16.00;;
66089;SDS011;53113;45.602;11.904;2022-10-19T18:58:22;22.90;;;15.80;;
66089;SDS011;53113;45.602;11.904;2022-10-19T19:00:49;24.70;;;15.20;;
66089;SDS011;53113;45.602;11.904;2022-10-19T19:03:15;26.20;;;17.20;;
66089;SDS011;53113;45.602;11.904;2022-10-19T19:05:42;23.50;;;16.90;;
66089;SDS011;53113;45.602;11.904;2022-10-19T19:08:07;23.80;;;16.70;;
66089;SDS011;53113;45.602;11.904;2022-10-19T19:10:33;25.80;;;16.50;;
66089;SDS011;53113;45.602;11.904;2022-10-19T19:12:59;22.20;;;15.00;;
66089;SDS011;53113;45.602;11.904;2022-10-19T19:15:25;23.50;;;15.90;;
66089;SDS011;53113;45.602;11.904;2022-10-19T19:17:52;23.80;;;15.80;;